Croxteth Park, United Kingdom
Current Conditions -  °F | °C
As of 10:20 AM on Saturday 20 Dec 2014 (Local Time) from EGGP Reporting Station
Scattered Clouds Scattered Clouds  
Wind Chill: 39°   Ceiling: Unl
Heat Index: 46°   Visibility: 6mi
Dew Point: 39°   Wind: 22mph
Humidity: 76%   Direction: 280°W
Pressure: 30.21"   Gusts: NA
Location:  53.44°N, 2.89°W
Report Text: EGGP 201020Z 28019KT 9999 FEW025 SCT042 08/04 Q1023
Loading
Personal Weather Stations






























Interactive Weather Map New forecast layout! Learn more

10-Day Weather Forecast

Advertisements
Track Severe Weather on mobile